sensor_id;sensor_type;location;lat;lon;timestamp;temperature;humidity
21123;DHT22;10719;48.130;11.630;2023-09-19T00:00:57;16.00;99.90
21123;DHT22;10719;48.130;11.630;2023-09-19T00:03:23;16.00;99.90
21123;DHT22;10719;48.130;11.630;2023-09-19T00:05:50;16.10;99.90
21123;DHT22;10719;48.130;11.630;2023-09-19T00:08:16;16.20;99.90
21123;DHT22;10719;48.130;11.630;2023-09-19T00:10:43;16.20;99.90
21123;DHT22;10719;48.130;11.630;2023-09-19T00:13:09;16.30;99.90
21123;DHT22;10719;48.130;11.630;2023-09-19T00:15:44;16.30;99.90
21123;DHT22;10719;48.130;11.630;2023-09-19T00:18:14;16.30;99.90
21123;DHT22;10719;48.130;11.630;2023-09-19T00:20:41;16.40;99.90
21123;DHT22;10719;48.130;11.630;2023-09-19T00:23:07;16.40;99.90
21123;DHT22;10719;48.130;11.630;2023-09-19T00:25:36;16.40;99.90
21123;DHT22;10719;48.130;11.630;2023-09-19T00:28:03;16.40;99.90
21123;DHT22;10719;48.130;11.630;2023-09-19T00:30:29;16.50;99.90
21123;DHT22;10719;48.130;11.630;2023-09-19T00:32:54;16.50;99.90
21123;DHT22;10719;48.130;11.630;2023-09-19T00:35:23;16.40;99.90
21123;DHT22;10719;48.130;11.630;2023-09-19T00:37:49;16.40;99.90
21123;DHT22;10719;48.130;11.630;2023-09-19T00:40:15;16.50;99.90
21123;DHT22;10719;48.130;11.630;2023-09-19T00:42:45;16.50;99.90
21123;DHT22;10719;48.130;11.630;2023-09-19T00:45:12;16.50;99.90
21123;DHT22;10719;48.130;11.630;2023-09-19T00:47:39;16.50;99.90
21123;DHT22;10719;48.130;11.630;2023-09-19T00:50:08;16.40;99.90
21123;DHT22;10719;48.130;11.630;2023-09-19T00:52:35;16.40;99.90
21123;DHT22;10719;48.130;11.630;2023-09-19T00:55:06;16.40;99.90
21123;DHT22;10719;48.130;11.630;2023-09-19T00:57:34;16.40;99.90
21123;DHT22;10719;48.130;11.630;2023-09-19T01:00:01;16.30;99.90
21123;DHT22;10719;48.130;11.630;2023-09-19T01:02:31;16.30;99.90
21123;DHT22;10719;48.130;11.630;2023-09-19T01:04:58;16.30;99.90
21123;DHT22;10719;48.130;11.630;2023-09-19T01:07:24;16.40;99.90
21123;DHT22;10719;48.130;11.630;2023-09-19T01:09:50;16.40;99.90
21123;DHT22;10719;48.130;11.630;2023-09-19T01:12:24;16.30;99.90
21123;DHT22;10719;48.130;11.630;2023-09-19T01:14:57;16.30;99.90
21123;DHT22;10719;48.130;11.630;2023-09-19T01:17:52;16.30;99.90
21123;DHT22;10719;48.130;11.630;2023-09-19T01:20:40;16.30;99.90
21123;DHT22;10719;48.130;11.630;2023-09-19T01:31:51;16.40;99.90
21123;DHT22;10719;48.130;11.630;2023-09-19T01:34:19;16.40;99.90
21123;DHT22;10719;48.130;11.630;2023-09-19T01:36:45;16.40;99.90
21123;DHT22;10719;48.130;11.630;2023-09-19T01:39:13;16.40;99.90
21123;DHT22;10719;48.130;11.630;2023-09-19T01:41:51;16.40;99.90
21123;DHT22;10719;48.130;11.630;2023-09-19T01:47:39;16.50;99.90
21123;DHT22;10719;48.130;11.630;2023-09-19T01:53:07;16.50;99.90
21123;DHT22;10719;48.130;11.630;2023-09-19T01:55:44;16.60;99.90
21123;DHT22;10719;48.130;11.630;2023-09-19T02:00:56;16.50;99.90
21123;DHT22;10719;48.130;11.630;2023-09-19T02:03:25;16.60;99.90
21123;DHT22;10719;48.130;11.630;2023-09-19T02:05:53;16.50;99.90
21123;DHT22;10719;48.130;11.630;2023-09-19T02:08:20;16.60;99.90
21123;DHT22;10719;48.130;11.630;2023-09-19T02:10:46;16.50;99.90
21123;DHT22;10719;48.130;11.630;2023-09-19T02:13:16;16.40;99.90
21123;DHT22;10719;48.130;11.630;2023-09-19T02:15:43;16.50;99.90
21123;DHT22;10719;48.130;11.630;2023-09-19T02:18:10;16.50;99.90
21123;DHT22;10719;48.130;11.630;2023-09-19T02:20:37;16.40;99.90
21123;DHT22;10719;48.130;11.630;2023-09-19T02:23:03;16.40;99.90
21123;DHT22;10719;48.130;11.630;2023-09-19T02:25:30;16.40;99.90
21123;DHT22;10719;48.130;11.630;2023-09-19T02:27:57;16.40;99.90
21123;DHT22;10719;48.130;11.630;2023-09-19T02:30:24;16.30;99.90
21123;DHT22;10719;48.130;11.630;2023-09-19T02:32:53;16.20;99.90
21123;DHT22;10719;48.130;11.630;2023-09-19T02:35:18;16.10;99.90
21123;DHT22;10719;48.130;11.630;2023-09-19T02:37:48;16.10;99.90
21123;DHT22;10719;48.130;11.630;2023-09-19T02:40:14;16.00;99.90
21123;DHT22;10719;48.130;11.630;2023-09-19T02:42:48;16.00;99.90
21123;DHT22;10719;48.130;11.630;2023-09-19T02:45:18;16.00;99.90
21123;DHT22;10719;48.130;11.630;2023-09-19T02:47:44;16.00;99.90
21123;DHT22;10719;48.130;11.630;2023-09-19T02:50:10;15.90;99.90
21123;DHT22;10719;48.130;11.630;2023-09-19T02:52:36;15.90;99.90
21123;DHT22;10719;48.130;11.630;2023-09-19T02:55:02;15.80;99.90
21123;DHT22;10719;48.130;11.630;2023-09-19T02:57:29;15.90;99.90
21123;DHT22;10719;48.130;11.630;2023-09-19T02:59:58;15.90;99.90
21123;DHT22;10719;48.130;11.630;2023-09-19T03:02:26;15.80;99.90
21123;DHT22;10719;48.130;11.630;2023-09-19T03:04:53;15.80;99.90
21123;DHT22;10719;48.130;11.630;2023-09-19T03:07:19;15.70;99.90
21123;DHT22;10719;48.130;11.630;2023-09-19T03:09:44;15.80;99.90
21123;DHT22;10719;48.130;11.630;2023-09-19T03:12:11;15.80;99.90
21123;DHT22;10719;48.130;11.630;2023-09-19T03:14:36;15.80;99.90
21123;DHT22;10719;48.130;11.630;2023-09-19T03:17:02;15.70;99.90
21123;DHT22;10719;48.130;11.630;2023-09-19T03:19:31;15.70;99.90
21123;DHT22;10719;48.130;11.630;2023-09-19T03:21:59;15.70;99.90
21123;DHT22;10719;48.130;11.630;2023-09-19T03:24:25;15.70;99.90
21123;DHT22;10719;48.130;11.630;2023-09-19T03:26:51;15.80;99.90
21123;DHT22;10719;48.130;11.630;2023-09-19T03:29:17;15.70;99.90
21123;DHT22;10719;48.130;11.630;2023-09-19T03:31:43;15.70;99.90
21123;DHT22;10719;48.130;11.630;2023-09-19T03:34:09;15.70;99.90
21123;DHT22;10719;48.130;11.630;2023-09-19T03:36:35;15.80;99.90
21123;DHT22;10719;48.130;11.630;2023-09-19T03:39:01;15.80;99.90
21123;DHT22;10719;48.130;11.630;2023-09-19T03:41:31;16.00;99.90
21123;DHT22;10719;48.130;11.630;2023-09-19T03:43:56;16.00;99.90
21123;DHT22;10719;48.130;11.630;2023-09-19T03:46:22;16.10;99.90
21123;DHT22;10719;48.130;11.630;2023-09-19T03:48:48;16.00;99.90
21123;DHT22;10719;48.130;11.630;2023-09-19T03:51:13;16.00;99.90
21123;DHT22;10719;48.130;11.630;2023-09-19T03:53:39;16.10;99.90
21123;DHT22;10719;48.130;11.630;2023-09-19T03:56:04;16.10;99.90
21123;DHT22;10719;48.130;11.630;2023-09-19T03:58:30;16.10;99.90
21123;DHT22;10719;48.130;11.630;2023-09-19T04:00:56;16.20;99.90
21123;DHT22;10719;48.130;11.630;2023-09-19T04:03:23;16.20;99.90
21123;DHT22;10719;48.130;11.630;2023-09-19T04:05:49;16.20;99.90
21123;DHT22;10719;48.130;11.630;2023-09-19T04:08:14;16.30;99.90
21123;DHT22;10719;48.130;11.630;2023-09-19T04:10:44;16.30;99.90
21123;DHT22;10719;48.130;11.630;2023-09-19T04:13:11;16.30;99.90
21123;DHT22;10719;48.130;11.630;2023-09-19T04:15:36;16.30;99.90
21123;DHT22;10719;48.130;11.630;2023-09-19T04:18:03;16.30;99.90
21123;DHT22;10719;48.130;11.630;2023-09-19T04:20:29;16.30;99.90
21123;DHT22;10719;48.130;11.630;2023-09-19T04:22:54;16.30;99.90
21123;DHT22;10719;48.130;11.630;2023-09-19T04:25:20;16.30;99.90
21123;DHT22;10719;48.130;11.630;2023-09-19T04:27:46;16.30;99.90
21123;DHT22;10719;48.130;11.630;2023-09-19T04:30:15;16.30;99.90
21123;DHT22;10719;48.130;11.630;2023-09-19T04:32:41;16.30;99.90
21123;DHT22;10719;48.130;11.630;2023-09-19T04:35:09;16.40;99.90
21123;DHT22;10719;48.130;11.630;2023-09-19T04:37:39;16.50;99.90
21123;DHT22;10719;48.130;11.630;2023-09-19T04:40:09;16.50;99.90
21123;DHT22;10719;48.130;11.630;2023-09-19T04:42:40;16.50;99.90
21123;DHT22;10719;48.130;11.630;2023-09-19T04:45:06;16.50;99.90
21123;DHT22;10719;48.130;11.630;2023-09-19T04:47:32;16.50;99.90
21123;DHT22;10719;48.130;11.630;2023-09-19T04:49:58;16.50;99.90
21123;DHT22;10719;48.130;11.630;2023-09-19T04:52:24;16.50;99.90
21123;DHT22;10719;48.130;11.630;2023-09-19T04:54:50;16.60;99.90
21123;DHT22;10719;48.130;11.630;2023-09-19T04:57:15;16.50;99.90
21123;DHT22;10719;48.130;11.630;2023-09-19T04:59:41;16.60;99.90
21123;DHT22;10719;48.130;11.630;2023-09-19T05:02:07;16.80;99.90
21123;DHT22;10719;48.130;11.630;2023-09-19T05:04:37;16.80;99.90
21123;DHT22;10719;48.130;11.630;2023-09-19T05:07:03;16.80;99.90
21123;DHT22;10719;48.130;11.630;2023-09-19T05:09:29;16.90;99.90
21123;DHT22;10719;48.130;11.630;2023-09-19T05:11:54;17.00;99.90
21123;DHT22;10719;48.130;11.630;2023-09-19T05:14:20;17.00;99.90
21123;DHT22;10719;48.130;11.630;2023-09-19T05:16:46;17.10;99.90
21123;DHT22;10719;48.130;11.630;2023-09-19T05:19:12;17.10;99.90
21123;DHT22;10719;48.130;11.630;2023-09-19T05:21:38;17.10;99.90
21123;DHT22;10719;48.130;11.630;2023-09-19T05:24:05;17.00;99.90
21123;DHT22;10719;48.130;11.630;2023-09-19T05:26:33;17.00;99.90
21123;DHT22;10719;48.130;11.630;2023-09-19T05:28:59;17.00;99.90
21123;DHT22;10719;48.130;11.630;2023-09-19T05:31:26;17.00;99.90
21123;DHT22;10719;48.130;11.630;2023-09-19T05:33:53;17.00;99.90
21123;DHT22;10719;48.130;11.630;2023-09-19T05:36:20;17.00;99.90
21123;DHT22;10719;48.130;11.630;2023-09-19T05:38:46;17.00;99.90
21123;DHT22;10719;48.130;11.630;2023-09-19T05:41:15;17.10;99.90
21123;DHT22;10719;48.130;11.630;2023-09-19T05:43:41;17.00;99.90
21123;DHT22;10719;48.130;11.630;2023-09-19T05:46:07;16.90;99.90
21123;DHT22;10719;48.130;11.630;2023-09-19T05:48:33;16.90;99.90
21123;DHT22;10719;48.130;11.630;2023-09-19T05:50:59;16.90;99.90
21123;DHT22;10719;48.130;11.630;2023-09-19T05:53:26;16.80;99.90
21123;DHT22;10719;48.130;11.630;2023-09-19T05:55:51;16.80;99.90
21123;DHT22;10719;48.130;11.630;2023-09-19T05:58:18;16.70;99.90
21123;DHT22;10719;48.130;11.630;2023-09-19T06:00:45;16.70;99.90
21123;DHT22;10719;48.130;11.630;2023-09-19T06:03:13;16.70;99.90
21123;DHT22;10719;48.130;11.630;2023-09-19T06:05:40;16.70;99.90
21123;DHT22;10719;48.130;11.630;2023-09-19T06:08:06;16.70;99.90
21123;DHT22;10719;48.130;11.630;2023-09-19T06:10:33;16.80;99.90
21123;DHT22;10719;48.130;11.630;2023-09-19T06:13:01;16.80;99.90
21123;DHT22;10719;48.130;11.630;2023-09-19T06:15:30;16.90;99.90
21123;DHT22;10719;48.130;11.630;2023-09-19T06:17:58;16.90;99.90
21123;DHT22;10719;48.130;11.630;2023-09-19T06:20:25;17.00;99.90
21123;DHT22;10719;48.130;11.630;2023-09-19T06:22:52;17.00;99.90
21123;DHT22;10719;48.130;11.630;2023-09-19T06:25:18;17.00;99.90
21123;DHT22;10719;48.130;11.630;2023-09-19T06:27:53;17.00;99.90
21123;DHT22;10719;48.130;11.630;2023-09-19T06:30:20;17.10;99.90
21123;DHT22;10719;48.130;11.630;2023-09-19T06:32:46;17.20;99.90
21123;DHT22;10719;48.130;11.630;2023-09-19T06:35:14;17.30;99.90
21123;DHT22;10719;48.130;11.630;2023-09-19T06:37:41;17.40;99.90
21123;DHT22;10719;48.130;11.630;2023-09-19T06:40:11;17.30;99.90
21123;DHT22;10719;48.130;11.630;2023-09-19T06:42:49;17.30;99.90
21123;DHT22;10719;48.130;11.630;2023-09-19T06:45:15;17.30;99.90
21123;DHT22;10719;48.130;11.630;2023-09-19T06:47:48;17.30;99.90
21123;DHT22;10719;48.130;11.630;2023-09-19T06:50:17;17.20;99.90
21123;DHT22;10719;48.130;11.630;2023-09-19T06:52:52;17.30;99.90
21123;DHT22;10719;48.130;11.630;2023-09-19T06:55:20;17.30;99.90
21123;DHT22;10719;48.130;11.630;2023-09-19T06:57:48;17.20;99.90
21123;DHT22;10719;48.130;11.630;2023-09-19T07:00:15;17.20;99.90
21123;DHT22;10719;48.130;11.630;2023-09-19T07:02:58;17.20;99.90
21123;DHT22;10719;48.130;11.630;2023-09-19T07:05:32;17.20;99.90
21123;DHT22;10719;48.130;11.630;2023-09-19T07:07:59;17.30;99.90
21123;DHT22;10719;48.130;11.630;2023-09-19T07:10:25;17.40;99.90
21123;DHT22;10719;48.130;11.630;2023-09-19T07:13:01;17.50;99.90
21123;DHT22;10719;48.130;11.630;2023-09-19T07:15:28;17.60;99.90
21123;DHT22;10719;48.130;11.630;2023-09-19T07:17:55;17.50;99.90
21123;DHT22;10719;48.130;11.630;2023-09-19T07:20:22;17.50;99.90
21123;DHT22;10719;48.130;11.630;2023-09-19T07:22:50;17.50;99.90
21123;DHT22;10719;48.130;11.630;2023-09-19T07:25:16;17.50;99.90
21123;DHT22;10719;48.130;11.630;2023-09-19T07:27:42;17.60;99.90
21123;DHT22;10719;48.130;11.630;2023-09-19T07:30:09;17.70;99.90
21123;DHT22;10719;48.130;11.630;2023-09-19T07:32:35;17.60;99.90
21123;DHT22;10719;48.130;11.630;2023-09-19T07:35:04;17.60;99.90
21123;DHT22;10719;48.130;11.630;2023-09-19T07:37:34;17.70;99.90
21123;DHT22;10719;48.130;11.630;2023-09-19T07:40:00;17.60;99.90
21123;DHT22;10719;48.130;11.630;2023-09-19T07:42:26;17.70;99.90
21123;DHT22;10719;48.130;11.630;2023-09-19T07:44:52;17.80;99.90
21123;DHT22;10719;48.130;11.630;2023-09-19T07:47:22;17.90;99.90
21123;DHT22;10719;48.130;11.630;2023-09-19T07:49:47;18.00;99.90
21123;DHT22;10719;48.130;11.630;2023-09-19T07:52:13;18.20;99.90
21123;DHT22;10719;48.130;11.630;2023-09-19T07:54:39;18.20;99.90
21123;DHT22;10719;48.130;11.630;2023-09-19T07:57:06;18.30;99.90
21123;DHT22;10719;48.130;11.630;2023-09-19T07:59:32;18.40;99.90
21123;DHT22;10719;48.130;11.630;2023-09-19T08:01:58;18.30;99.90
21123;DHT22;10719;48.130;11.630;2023-09-19T08:04:24;18.40;99.90
21123;DHT22;10719;48.130;11.630;2023-09-19T08:06:51;18.20;99.90
21123;DHT22;10719;48.130;11.630;2023-09-19T08:09:17;18.30;99.90
21123;DHT22;10719;48.130;11.630;2023-09-19T08:11:46;18.40;99.90
21123;DHT22;10719;48.130;11.630;2023-09-19T08:14:12;18.60;99.90
21123;DHT22;10719;48.130;11.630;2023-09-19T08:16:40;18.70;99.90
21123;DHT22;10719;48.130;11.630;2023-09-19T08:19:05;18.80;99.90
21123;DHT22;10719;48.130;11.630;2023-09-19T08:21:31;18.80;99.90
21123;DHT22;10719;48.130;11.630;2023-09-19T08:23:57;18.70;99.90
21123;DHT22;10719;48.130;11.630;2023-09-19T08:26:23;18.70;99.90
21123;DHT22;10719;48.130;11.630;2023-09-19T08:28:49;18.90;99.90
21123;DHT22;10719;48.130;11.630;2023-09-19T08:31:16;19.00;99.90
21123;DHT22;10719;48.130;11.630;2023-09-19T08:33:42;19.10;99.90
21123;DHT22;10719;48.130;11.630;2023-09-19T08:36:09;19.00;99.90
21123;DHT22;10719;48.130;11.630;2023-09-19T08:38:35;18.80;99.90
21123;DHT22;10719;48.130;11.630;2023-09-19T08:41:06;18.60;99.90
21123;DHT22;10719;48.130;11.630;2023-09-19T08:43:32;18.60;99.90
21123;DHT22;10719;48.130;11.630;2023-09-19T08:46:11;18.60;99.90
21123;DHT22;10719;48.130;11.630;2023-09-19T08:48:46;18.70;99.90
21123;DHT22;10719;48.130;11.630;2023-09-19T08:51:26;18.90;99.90
21123;DHT22;10719;48.130;11.630;2023-09-19T08:54:09;19.00;99.90
21123;DHT22;10719;48.130;11.630;2023-09-19T08:56:39;19.20;99.90
21123;DHT22;10719;48.130;11.630;2023-09-19T08:59:07;19.40;99.90
21123;DHT22;10719;48.130;11.630;2023-09-19T09:01:33;19.40;99.90
21123;DHT22;10719;48.130;11.630;2023-09-19T09:03:59;19.70;99.90
21123;DHT22;10719;48.130;11.630;2023-09-19T09:06:26;20.40;99.90
21123;DHT22;10719;48.130;11.630;2023-09-19T09:08:53;21.50;99.90
21123;DHT22;10719;48.130;11.630;2023-09-19T09:11:20;22.50;99.90
21123;DHT22;10719;48.130;11.630;2023-09-19T09:13:46;21.80;99.90
21123;DHT22;10719;48.130;11.630;2023-09-19T09:16:13;21.10;99.90
21123;DHT22;10719;48.130;11.630;2023-09-19T09:18:41;20.70;99.90
21123;DHT22;10719;48.130;11.630;2023-09-19T09:21:09;21.00;99.90
21123;DHT22;10719;48.130;11.630;2023-09-19T09:23:35;20.70;99.90
21123;DHT22;10719;48.130;11.630;2023-09-19T09:26:01;20.10;99.90
21123;DHT22;10719;48.130;11.630;2023-09-19T09:28:32;19.80;99.90
21123;DHT22;10719;48.130;11.630;2023-09-19T09:30:59;19.60;99.90
21123;DHT22;10719;48.130;11.630;2023-09-19T09:33:25;19.90;99.90
21123;DHT22;10719;48.130;11.630;2023-09-19T09:35:55;21.30;99.90
21123;DHT22;10719;48.130;11.630;2023-09-19T09:38:29;22.90;99.90
21123;DHT22;10719;48.130;11.630;2023-09-19T09:40:58;23.60;99.90
21123;DHT22;10719;48.130;11.630;2023-09-19T09:43:33;23.90;99.90
21123;DHT22;10719;48.130;11.630;2023-09-19T09:46:20;24.60;99.90
21123;DHT22;10719;48.130;11.630;2023-09-19T09:48:57;25.80;99.90
21123;DHT22;10719;48.130;11.630;2023-09-19T09:54:23;23.10;99.90
21123;DHT22;10719;48.130;11.630;2023-09-19T09:56:56;22.80;99.90
21123;DHT22;10719;48.130;11.630;2023-09-19T09:59:48;22.90;99.90
21123;DHT22;10719;48.130;11.630;2023-09-19T10:04:59;24.50;99.90
21123;DHT22;10719;48.130;11.630;2023-09-19T10:07:32;25.50;99.90
21123;DHT22;10719;48.130;11.630;2023-09-19T10:10:05;25.30;99.90
21123;DHT22;10719;48.130;11.630;2023-09-19T10:12:47;25.90;99.90
21123;DHT22;10719;48.130;11.630;2023-09-19T10:15:15;25.80;99.90
21123;DHT22;10719;48.130;11.630;2023-09-19T10:17:44;26.30;99.90
21123;DHT22;10719;48.130;11.630;2023-09-19T10:20:18;27.20;99.90
21123;DHT22;10719;48.130;11.630;2023-09-19T10:22:53;26.80;99.90
21123;DHT22;10719;48.130;11.630;2023-09-19T10:25:29;25.70;99.90
21123;DHT22;10719;48.130;11.630;2023-09-19T10:28:00;25.90;99.90
21123;DHT22;10719;48.130;11.630;2023-09-19T10:30:29;26.90;99.90
21123;DHT22;10719;48.130;11.630;2023-09-19T10:33:03;26.70;99.90
21123;DHT22;10719;48.130;11.630;2023-09-19T10:35:32;26.70;99.90
21123;DHT22;10719;48.130;11.630;2023-09-19T10:38:00;26.30;99.90
21123;DHT22;10719;48.130;11.630;2023-09-19T10:40:29;25.00;99.90
21123;DHT22;10719;48.130;11.630;2023-09-19T10:43:02;23.60;99.90
21123;DHT22;10719;48.130;11.630;2023-09-19T10:45:31;22.50;99.90
21123;DHT22;10719;48.130;11.630;2023-09-19T10:47:58;22.40;99.90
21123;DHT22;10719;48.130;11.630;2023-09-19T10:50:24;22.50;99.90
21123;DHT22;10719;48.130;11.630;2023-09-19T10:52:50;22.90;99.90
21123;DHT22;10719;48.130;11.630;2023-09-19T10:55:25;23.00;99.90
21123;DHT22;10719;48.130;11.630;2023-09-19T10:57:51;23.40;99.90
21123;DHT22;10719;48.130;11.630;2023-09-19T11:00:17;23.50;99.90
21123;DHT22;10719;48.130;11.630;2023-09-19T11:05:38;23.70;99.90
21123;DHT22;10719;48.130;11.630;2023-09-19T11:08:07;24.30;99.90
21123;DHT22;10719;48.130;11.630;2023-09-19T11:10:53;24.00;99.90
21123;DHT22;10719;48.130;11.630;2023-09-19T11:13:29;23.90;99.90
21123;DHT22;10719;48.130;11.630;2023-09-19T11:16:03;23.30;99.90
21123;DHT22;10719;48.130;11.630;2023-09-19T11:26:50;21.40;99.90
21123;DHT22;10719;48.130;11.630;2023-09-19T11:29:27;21.50;99.90
21123;DHT22;10719;48.130;11.630;2023-09-19T11:31:55;22.00;99.90
21123;DHT22;10719;48.130;11.630;2023-09-19T11:34:37;21.90;99.90
21123;DHT22;10719;48.130;11.630;2023-09-19T11:39:37;22.80;99.90
21123;DHT22;10719;48.130;11.630;2023-09-19T11:48:23;22.20;99.90
21123;DHT22;10719;48.130;11.630;2023-09-19T11:50:51;22.10;99.90
21123;DHT22;10719;48.130;11.630;2023-09-19T11:53:17;22.40;99.90
21123;DHT22;10719;48.130;11.630;2023-09-19T11:55:45;22.90;99.90
21123;DHT22;10719;48.130;11.630;2023-09-19T11:58:13;23.00;99.90
21123;DHT22;10719;48.130;11.630;2023-09-19T12:00:40;22.90;99.90
21123;DHT22;10719;48.130;11.630;2023-09-19T12:03:10;23.50;99.90
21123;DHT22;10719;48.130;11.630;2023-09-19T12:05:36;23.30;99.90
21123;DHT22;10719;48.130;11.630;2023-09-19T12:08:06;23.80;99.90
21123;DHT22;10719;48.130;11.630;2023-09-19T12:10:48;24.00;99.90
21123;DHT22;10719;48.130;11.630;2023-09-19T12:13:18;24.30;99.90
21123;DHT22;10719;48.130;11.630;2023-09-19T12:15:44;25.10;99.90
21123;DHT22;10719;48.130;11.630;2023-09-19T12:18:31;25.50;99.90
21123;DHT22;10719;48.130;11.630;2023-09-19T12:20:58;26.30;99.90
21123;DHT22;10719;48.130;11.630;2023-09-19T12:23:25;26.70;99.90
21123;DHT22;10719;48.130;11.630;2023-09-19T12:25:51;26.60;99.90
21123;DHT22;10719;48.130;11.630;2023-09-19T12:28:19;26.60;99.90
21123;DHT22;10719;48.130;11.630;2023-09-19T12:30:48;27.30;99.90
21123;DHT22;10719;48.130;11.630;2023-09-19T12:33:20;27.60;99.90
21123;DHT22;10719;48.130;11.630;2023-09-19T12:35:47;27.60;99.90
21123;DHT22;10719;48.130;11.630;2023-09-19T12:38:25;27.80;99.90
21123;DHT22;10719;48.130;11.630;2023-09-19T12:40:55;27.20;99.90
21123;DHT22;10719;48.130;11.630;2023-09-19T12:43:22;27.00;99.90
21123;DHT22;10719;48.130;11.630;2023-09-19T12:45:48;27.00;99.90
21123;DHT22;10719;48.130;11.630;2023-09-19T12:48:24;26.20;99.90
21123;DHT22;10719;48.130;11.630;2023-09-19T12:51:12;25.30;99.90
21123;DHT22;10719;48.130;11.630;2023-09-19T12:53:45;25.40;99.90
21123;DHT22;10719;48.130;11.630;2023-09-19T12:56:17;26.10;99.90
21123;DHT22;10719;48.130;11.630;2023-09-19T12:58:57;26.30;99.90
21123;DHT22;10719;48.130;11.630;2023-09-19T13:01:32;26.70;99.90
21123;DHT22;10719;48.130;11.630;2023-09-19T13:06:38;26.40;99.90
21123;DHT22;10719;48.130;11.630;2023-09-19T13:09:09;27.10;99.90
21123;DHT22;10719;48.130;11.630;2023-09-19T13:11:37;27.00;99.90
21123;DHT22;10719;48.130;11.630;2023-09-19T13:14:18;27.20;99.90
21123;DHT22;10719;48.130;11.630;2023-09-19T13:19:51;27.50;99.90
21123;DHT22;10719;48.130;11.630;2023-09-19T13:22:42;28.30;99.90
21123;DHT22;10719;48.130;11.630;2023-09-19T13:25:16;27.90;99.90
21123;DHT22;10719;48.130;11.630;2023-09-19T13:30:17;28.60;99.90
21123;DHT22;10719;48.130;11.630;2023-09-19T13:32:43;28.40;99.90
21123;DHT22;10719;48.130;11.630;2023-09-19T13:35:09;28.80;99.90
21123;DHT22;10719;48.130;11.630;2023-09-19T13:37:37;29.10;99.90
21123;DHT22;10719;48.130;11.630;2023-09-19T13:40:07;29.10;99.90
21123;DHT22;10719;48.130;11.630;2023-09-19T13:42:33;29.40;99.90
21123;DHT22;10719;48.130;11.630;2023-09-19T13:44:59;29.60;99.90
21123;DHT22;10719;48.130;11.630;2023-09-19T13:47:24;28.50;99.90
21123;DHT22;10719;48.130;11.630;2023-09-19T13:49:52;28.10;99.90
21123;DHT22;10719;48.130;11.630;2023-09-19T13:52:21;28.00;99.90
21123;DHT22;10719;48.130;11.630;2023-09-19T13:54:49;28.40;99.90
21123;DHT22;10719;48.130;11.630;2023-09-19T13:57:15;28.60;99.90
21123;DHT22;10719;48.130;11.630;2023-09-19T13:59:42;29.40;99.90
21123;DHT22;10719;48.130;11.630;2023-09-19T14:02:07;29.90;99.90
21123;DHT22;10719;48.130;11.630;2023-09-19T14:04:33;30.80;99.90
21123;DHT22;10719;48.130;11.630;2023-09-19T14:07:02;30.20;99.90
21123;DHT22;10719;48.130;11.630;2023-09-19T14:09:28;28.40;99.90
21123;DHT22;10719;48.130;11.630;2023-09-19T14:11:54;27.40;99.90
21123;DHT22;10719;48.130;11.630;2023-09-19T14:14:20;26.90;99.90
21123;DHT22;10719;48.130;11.630;2023-09-19T14:16:49;26.70;99.90
21123;DHT22;10719;48.130;11.630;2023-09-19T14:19:15;26.00;99.90
21123;DHT22;10719;48.130;11.630;2023-09-19T14:21:42;25.50;99.90
21123;DHT22;10719;48.130;11.630;2023-09-19T14:24:08;25.10;99.90
21123;DHT22;10719;48.130;11.630;2023-09-19T14:26:38;24.40;99.90
21123;DHT22;10719;48.130;11.630;2023-09-19T14:29:04;24.10;99.90
21123;DHT22;10719;48.130;11.630;2023-09-19T14:31:33;24.00;99.90
21123;DHT22;10719;48.130;11.630;2023-09-19T14:33:59;23.60;99.90
21123;DHT22;10719;48.130;11.630;2023-09-19T14:36:25;23.30;99.90
21123;DHT22;10719;48.130;11.630;2023-09-19T14:38:55;23.10;99.90
21123;DHT22;10719;48.130;11.630;2023-09-19T14:41:23;22.70;99.90
21123;DHT22;10719;48.130;11.630;2023-09-19T14:43:51;22.60;99.90
21123;DHT22;10719;48.130;11.630;2023-09-19T14:46:16;22.80;99.90
21123;DHT22;10719;48.130;11.630;2023-09-19T14:48:44;22.90;99.90
21123;DHT22;10719;48.130;11.630;2023-09-19T14:51:12;22.90;99.90
21123;DHT22;10719;48.130;11.630;2023-09-19T14:53:42;22.80;99.90
21123;DHT22;10719;48.130;11.630;2023-09-19T14:56:09;22.90;99.90
21123;DHT22;10719;48.130;11.630;2023-09-19T14:58:35;23.00;99.90
21123;DHT22;10719;48.130;11.630;2023-09-19T15:01:09;23.00;99.90
21123;DHT22;10719;48.130;11.630;2023-09-19T15:03:39;23.00;99.90
21123;DHT22;10719;48.130;11.630;2023-09-19T15:06:06;22.90;99.90
21123;DHT22;10719;48.130;11.630;2023-09-19T15:08:35;22.80;99.90
21123;DHT22;10719;48.130;11.630;2023-09-19T15:11:06;22.80;99.90
21123;DHT22;10719;48.130;11.630;2023-09-19T15:13:33;22.70;99.90
21123;DHT22;10719;48.130;11.630;2023-09-19T15:16:03;22.60;99.90
21123;DHT22;10719;48.130;11.630;2023-09-19T15:18:29;22.60;99.90
21123;DHT22;10719;48.130;11.630;2023-09-19T15:21:05;22.50;99.90
21123;DHT22;10719;48.130;11.630;2023-09-19T15:23:31;22.50;99.90
21123;DHT22;10719;48.130;11.630;2023-09-19T15:26:00;22.40;99.90
21123;DHT22;10719;48.130;11.630;2023-09-19T15:28:27;22.20;99.90
21123;DHT22;10719;48.130;11.630;2023-09-19T15:31:01;22.10;99.90
21123;DHT22;10719;48.130;11.630;2023-09-19T15:33:27;22.10;99.90
21123;DHT22;10719;48.130;11.630;2023-09-19T15:36:09;22.10;99.90
21123;DHT22;10719;48.130;11.630;2023-09-19T15:39:00;22.10;99.90
21123;DHT22;10719;48.130;11.630;2023-09-19T15:41:37;22.00;99.90
21123;DHT22;10719;48.130;11.630;2023-09-19T15:44:03;21.90;99.90
21123;DHT22;10719;48.130;11.630;2023-09-19T15:46:31;21.80;99.90
21123;DHT22;10719;48.130;11.630;2023-09-19T15:48:58;21.80;99.90
21123;DHT22;10719;48.130;11.630;2023-09-19T15:51:25;21.80;99.90
21123;DHT22;10719;48.130;11.630;2023-09-19T15:53:53;21.80;99.90
21123;DHT22;10719;48.130;11.630;2023-09-19T15:56:20;21.80;99.90
21123;DHT22;10719;48.130;11.630;2023-09-19T15:58:50;21.80;99.90
21123;DHT22;10719;48.130;11.630;2023-09-19T16:01:16;21.80;99.90
21123;DHT22;10719;48.130;11.630;2023-09-19T16:03:44;21.70;99.90
21123;DHT22;10719;48.130;11.630;2023-09-19T16:06:15;21.60;99.90
21123;DHT22;10719;48.130;11.630;2023-09-19T16:08:45;21.50;99.90
21123;DHT22;10719;48.130;11.630;2023-09-19T16:11:11;21.40;99.90
21123;DHT22;10719;48.130;11.630;2023-09-19T16:13:40;21.40;99.90
21123;DHT22;10719;48.130;11.630;2023-09-19T16:16:07;21.30;99.90